createdAt,value
2022-08-22T00:00:17.776Z,4.03
2022-08-22T00:02:47.157Z,8.90
2022-08-22T00:03:03.075Z,5.30
2022-08-22T00:03:07.364Z,4.85
2022-08-22T00:06:00.949Z,3.60
2022-08-22T00:08:38.985Z,2.53
2022-08-22T00:11:18.782Z,3.25
2022-08-22T00:14:01.771Z,3.70
2022-08-22T00:16:28.535Z,4.10
2022-08-22T00:18:53.232Z,2.17
2022-08-22T00:21:37.700Z,4.40
2022-08-22T00:23:54.964Z,3.83
2022-08-22T00:26:18.926Z,3.28
2022-08-22T00:28:32.913Z,3.55
2022-08-22T00:30:57.412Z,4.22
2022-08-22T00:33:11.753Z,2.83
2022-08-22T00:35:20.931Z,2.85
2022-08-22T00:37:26.990Z,4.85
2022-08-22T00:39:54.631Z,5.32
2022-08-22T00:42:38.653Z,4.18
2022-08-22T00:45:12.354Z,3.65
2022-08-22T00:47:33.453Z,3.33
2022-08-22T00:49:59.875Z,3.92
2022-08-22T00:52:38.902Z,4.10
2022-08-22T00:55:10.042Z,4.35
2022-08-22T00:57:56.096Z,2.92
2022-08-22T01:00:24.533Z,3.53
2022-08-22T01:02:52.694Z,3.20
2022-08-22T01:05:37.923Z,4.03
2022-08-22T01:08:00.057Z,3.88
2022-08-22T01:10:36.958Z,5.10
2022-08-22T01:13:23.943Z,4.10
2022-08-22T01:15:38.153Z,4.28
2022-08-22T01:18:17.771Z,2.85
2022-08-22T01:20:50.153Z,3.05
2022-08-22T01:23:26.954Z,4.50
2022-08-22T01:25:59.964Z,3.45
2022-08-22T01:28:34.218Z,4.20
2022-08-22T01:31:11.958Z,4.18
2022-08-22T01:33:55.356Z,4.43
2022-08-22T01:36:35.914Z,4.60
2022-08-22T01:38:56.927Z,5.25
2022-08-22T01:41:27.152Z,4.55
2022-08-22T01:44:03.637Z,4.05
2022-08-22T01:46:42.952Z,3.60
2022-08-22T01:49:14.414Z,3.60
2022-08-22T01:51:34.074Z,3.33
2022-08-22T01:53:41.674Z,3.60
2022-08-22T01:56:19.773Z,5.00
2022-08-22T01:58:31.573Z,4.20
2022-08-22T02:01:32.712Z,5.38
2022-08-22T02:04:08.349Z,2.83
2022-08-22T02:06:25.893Z,3.60
2022-08-22T02:08:49.853Z,3.00
2022-08-22T02:11:11.505Z,2.90
2022-08-22T02:13:39.928Z,2.58
2022-08-22T02:16:13.032Z,3.40
2022-08-22T02:18:40.997Z,3.08
2022-08-22T02:21:06.949Z,4.07
2022-08-22T02:23:38.927Z,3.47
2022-08-22T02:28:57.049Z,2.92
2022-08-22T02:31:16.917Z,3.97
2022-08-22T02:33:34.442Z,3.30
2022-08-22T02:35:59.653Z,3.38
2022-08-22T02:38:29.073Z,2.90
2022-08-22T02:40:58.774Z,2.90
2022-08-22T02:43:54.193Z,2.70
2022-08-22T02:46:17.738Z,3.15
2022-08-22T02:48:49.812Z,3.28
2022-08-22T02:51:27.512Z,5.32
2022-08-22T02:54:08.394Z,2.83
2022-08-22T02:56:29.942Z,3.15
2022-08-22T02:58:59.155Z,3.10
2022-08-22T03:01:25.619Z,4.07
2022-08-22T03:03:37.412Z,3.22
2022-08-22T03:06:01.443Z,2.28
2022-08-22T03:08:20.083Z,2.38
2022-08-22T03:10:30.393Z,1.95
2022-08-22T03:12:59.983Z,2.65
2022-08-22T03:15:17.008Z,2.70
2022-08-22T03:17:33.097Z,3.92
2022-08-22T03:19:54.115Z,2.80
2022-08-22T03:22:06.515Z,2.88
2022-08-22T03:24:56.983Z,2.47
2022-08-22T03:27:32.830Z,2.45
2022-08-22T03:29:49.970Z,1.60
2022-08-22T03:32:13.354Z,2.63
2022-08-22T03:34:23.699Z,2.42
2022-08-22T03:36:29.952Z,1.58
2022-08-22T03:38:33.131Z,1.90
2022-08-22T03:40:50.053Z,2.83
2022-08-22T03:43:26.833Z,2.42
2022-08-22T03:45:35.652Z,2.17
2022-08-22T03:48:16.513Z,2.25
2022-08-22T03:50:54.595Z,3.03
2022-08-22T03:53:18.624Z,2.88
2022-08-22T03:56:04.075Z,2.55
2022-08-22T03:58:27.877Z,2.63
2022-08-22T04:00:51.023Z,2.13
2022-08-22T04:03:39.152Z,2.30
2022-08-22T04:06:00.036Z,2.80
2022-08-22T04:08:30.966Z,1.55
2022-08-22T04:11:04.893Z,2.03
2022-08-22T04:13:27.533Z,1.98
2022-08-22T04:16:17.835Z,3.20
2022-08-22T04:18:48.144Z,1.98
2022-08-22T04:21:47.053Z,1.85
2022-08-22T04:24:21.247Z,1.23
2022-08-22T04:26:37.340Z,3.15
2022-08-22T04:28:49.331Z,2.55
2022-08-22T04:31:01.532Z,2.05
2022-08-22T04:33:27.254Z,2.28
2022-08-22T04:36:03.536Z,1.63
2022-08-22T04:38:15.986Z,2.38
2022-08-22T04:40:48.947Z,2.80
2022-08-22T04:43:03.672Z,2.05
2022-08-22T04:45:41.961Z,2.35
2022-08-22T04:48:09.852Z,2.35
2022-08-22T04:50:26.566Z,2.10
2022-08-22T04:52:50.833Z,0.88
2022-08-22T04:54:58.001Z,3.00
2022-08-22T04:57:21.923Z,1.45
2022-08-22T04:59:25.981Z,2.72
2022-08-22T05:01:45.211Z,1.33
2022-08-22T05:03:59.494Z,1.08
2022-08-22T05:06:07.601Z,2.13
2022-08-22T05:08:19.992Z,2.25
2022-08-22T05:10:39.895Z,2.42
2022-08-22T05:12:55.075Z,1.92
2022-08-22T05:15:30.612Z,1.85
2022-08-22T05:17:36.675Z,2.85
2022-08-22T05:19:46.515Z,1.45
2022-08-22T05:21:51.853Z,2.00
2022-08-22T05:24:14.592Z,2.08
2022-08-22T05:26:20.133Z,1.40
2022-08-22T05:28:39.393Z,1.08
2022-08-22T05:30:47.493Z,1.67
2022-08-22T05:33:32.955Z,1.77
2022-08-22T05:35:50.797Z,1.05
2022-08-22T05:37:58.047Z,2.20
2022-08-22T05:40:02.742Z,1.65
2022-08-22T05:42:14.093Z,1.45
2022-08-22T05:44:21.072Z,1.40
2022-08-22T05:46:38.394Z,1.23
2022-08-22T05:48:50.948Z,0.93
2022-08-22T05:51:23.161Z,0.63
2022-08-22T05:53:42.731Z,1.35
2022-08-22T05:55:48.987Z,1.58
2022-08-22T05:58:31.083Z,1.13
2022-08-22T06:00:43.173Z,0.95
2022-08-22T06:03:19.542Z,1.48
2022-08-22T06:05:29.302Z,1.85
2022-08-22T06:07:43.932Z,1.55
2022-08-22T06:09:46.963Z,1.70
2022-08-22T06:12:00.865Z,1.00
2022-08-22T06:14:37.842Z,1.85
2022-08-22T06:17:20.174Z,2.25
2022-08-22T06:19:25.810Z,1.98
2022-08-22T06:21:37.695Z,1.73
2022-08-22T06:24:09.763Z,1.15
2022-08-22T06:26:21.188Z,2.38
2022-08-22T06:28:29.875Z,2.17
2022-08-22T06:30:37.033Z,1.40
2022-08-22T06:33:00.256Z,2.47
2022-08-22T06:35:17.712Z,1.60
2022-08-22T06:37:32.073Z,1.77
2022-08-22T06:39:42.051Z,1.52
2022-08-22T06:41:57.589Z,0.95
2022-08-22T06:44:04.927Z,1.30
2022-08-22T06:46:10.418Z,1.10
2022-08-22T06:48:19.940Z,2.35
2022-08-22T06:50:35.111Z,1.55
2022-08-22T06:53:07.823Z,2.22
2022-08-22T06:55:12.984Z,1.45
2022-08-22T06:57:39.383Z,0.95
2022-08-22T06:59:46.133Z,1.65
2022-08-22T07:02:10.983Z,1.55
2022-08-22T07:04:16.482Z,1.60
2022-08-22T07:06:36.053Z,0.70
2022-08-22T07:08:43.175Z,1.23
2022-08-22T07:11:15.960Z,0.85
2022-08-22T07:13:20.832Z,1.13
2022-08-22T07:15:37.652Z,2.80
2022-08-22T07:17:53.133Z,1.88
2022-08-22T07:20:08.294Z,1.92
2022-08-22T07:22:39.949Z,4.03
2022-08-22T07:24:53.155Z,1.65
2022-08-22T07:27:37.984Z,1.80
2022-08-22T07:30:16.143Z,1.83
2022-08-22T07:32:52.969Z,2.00
2022-08-22T07:35:38.264Z,10.70
2022-08-22T07:38:16.690Z,3.03
2022-08-22T07:40:54.791Z,2.13
2022-08-22T07:43:30.144Z,1.20
2022-08-22T07:45:48.792Z,1.88
2022-08-22T07:48:26.249Z,2.55
2022-08-22T07:51:08.076Z,2.45
2022-08-22T07:53:41.952Z,2.55
2022-08-22T07:56:03.391Z,2.33
2022-08-22T07:58:15.294Z,2.42
2022-08-22T08:00:25.082Z,2.80
2022-08-22T08:03:06.511Z,3.58
2022-08-22T08:05:17.585Z,2.85
2022-08-22T08:07:35.410Z,2.88
2022-08-22T08:10:01.340Z,3.38
2022-08-22T08:12:13.122Z,2.95
2022-08-22T08:14:22.665Z,3.88
2022-08-22T08:16:33.555Z,4.50
2022-08-22T08:18:42.053Z,3.33
2022-08-22T08:21:07.564Z,3.28
2022-08-22T08:23:16.372Z,4.97
2022-08-22T08:25:30.734Z,5.07
2022-08-22T08:27:39.253Z,4.22
2022-08-22T08:29:59.540Z,4.32
2022-08-22T08:32:07.112Z,4.05
2022-08-22T08:34:23.717Z,4.38
2022-08-22T08:36:38.783Z,5.18
2022-08-22T08:39:25.946Z,5.10
2022-08-22T08:42:22.284Z,5.22
2022-08-22T08:45:32.905Z,4.68
2022-08-22T08:47:56.934Z,5.70
2022-08-22T08:50:21.381Z,5.47
2022-08-22T08:53:07.760Z,4.95
2022-08-22T08:55:36.161Z,6.95
2022-08-22T09:01:45.053Z,6.53
2022-08-22T09:04:25.959Z,6.50
2022-08-22T09:07:15.547Z,5.88
2022-08-22T09:10:00.969Z,6.35
2022-08-22T09:13:11.842Z,6.22
2022-08-22T09:16:10.882Z,6.72
2022-08-22T09:18:36.826Z,6.88
2022-08-22T09:21:30.414Z,7.07
2022-08-22T09:24:16.369Z,7.00
2022-08-22T09:26:57.198Z,6.70
2022-08-22T09:29:54.882Z,8.05
2022-08-22T09:32:19.998Z,7.47
2022-08-22T09:34:44.104Z,6.70
2022-08-22T09:37:22.946Z,7.40
2022-08-22T09:39:51.116Z,6.88
2022-08-22T09:42:10.044Z,8.00
2022-08-22T09:44:53.975Z,7.30
2022-08-22T09:47:25.034Z,8.50
2022-08-22T09:49:44.904Z,8.23
2022-08-22T09:52:04.814Z,7.90
2022-08-22T09:54:32.817Z,8.35
2022-08-22T09:57:23.364Z,8.07
2022-08-22T10:00:04.545Z,6.88
2022-08-22T10:02:22.474Z,7.78
2022-08-22T10:05:09.586Z,8.82
2022-08-22T10:07:42.164Z,8.00
2022-08-22T10:10:16.974Z,7.53
2022-08-22T10:12:56.085Z,8.52
2022-08-22T10:15:36.873Z,8.07
2022-08-22T10:17:57.065Z,9.77
2022-08-22T10:20:22.936Z,8.50
2022-08-22T10:22:39.995Z,8.55
2022-08-22T10:25:18.944Z,9.57
2022-08-22T10:27:54.971Z,9.00
2022-08-22T10:30:21.725Z,9.05
2022-08-22T10:33:02.904Z,8.55
2022-08-22T10:36:15.919Z,9.20
2022-08-22T10:39:11.605Z,8.13
2022-08-22T10:43:28.778Z,7.57
2022-08-22T10:45:43.000Z,7.53
2022-08-22T10:52:34.817Z,8.25
2022-08-22T10:54:56.964Z,8.85
2022-08-22T10:57:38.184Z,9.85
2022-08-22T11:16:10.276Z,9.85
2022-08-22T11:21:12.850Z,10.60
2022-08-22T11:23:48.310Z,9.05
2022-08-22T11:26:29.970Z,9.85
2022-08-22T11:29:12.356Z,9.70
2022-08-22T11:31:55.106Z,9.75
2022-08-22T11:34:17.030Z,10.57
2022-08-22T11:36:51.936Z,10.77
2022-08-22T11:39:28.645Z,10.15
2022-08-22T11:41:53.120Z,10.88
2022-08-22T11:44:11.985Z,10.57
2022-08-22T11:46:31.247Z,10.85
2022-08-22T11:49:09.055Z,10.07
2022-08-22T11:52:03.732Z,10.88
2022-08-22T11:55:04.464Z,10.18
2022-08-22T11:57:45.062Z,13.68
2022-08-22T12:00:27.950Z,9.90
2022-08-22T12:02:47.976Z,9.32
2022-08-22T12:05:11.311Z,10.68
2022-08-22T12:07:40.965Z,10.27
2022-08-22T12:10:13.534Z,10.98
2022-08-22T12:12:42.767Z,10.57
2022-08-22T12:15:48.960Z,12.35
2022-08-22T12:19:23.052Z,9.27
2022-08-22T12:22:06.923Z,9.90
2022-08-22T12:24:47.245Z,10.38
2022-08-22T12:30:17.945Z,12.60
2022-08-22T12:33:06.168Z,11.30
2022-08-22T12:43:56.305Z,10.93
2022-08-22T13:32:08.703Z,11.65
2022-08-22T13:34:39.551Z,11.25
2022-08-22T13:48:21.625Z,13.25
2022-08-22T13:53:08.444Z,11.98
2022-08-22T14:29:03.121Z,12.80
2022-08-22T14:33:19.238Z,11.93
2022-08-22T14:39:44.094Z,12.35
2022-08-22T14:42:18.685Z,13.15
2022-08-22T14:45:25.725Z,15.25
2022-08-22T14:48:29.876Z,14.75
2022-08-22T14:51:04.529Z,14.43
2022-08-22T14:53:47.745Z,14.20
2022-08-22T14:56:32.914Z,13.25
2022-08-22T15:02:25.963Z,15.02
2022-08-22T15:06:13.944Z,13.60
2022-08-22T15:12:55.783Z,13.90
2022-08-22T15:15:52.852Z,14.63
2022-08-22T15:18:32.005Z,13.63
2022-08-22T15:20:45.446Z,15.30
2022-08-22T15:23:11.094Z,14.18
2022-08-22T15:25:46.889Z,12.73
2022-08-22T15:28:53.206Z,14.90
2022-08-22T15:31:34.171Z,13.07
2022-08-22T15:34:04.093Z,14.80
2022-08-22T15:36:41.705Z,14.93
2022-08-22T15:39:45.878Z,12.77
2022-08-22T15:42:35.175Z,15.52
2022-08-22T15:44:53.817Z,14.52
2022-08-22T15:47:53.511Z,13.52
2022-08-22T15:50:42.285Z,13.20
2022-08-22T15:53:43.124Z,13.07
2022-08-22T15:56:10.953Z,13.20
2022-08-22T15:58:48.162Z,13.75
2022-08-22T16:01:35.090Z,14.55
2022-08-22T16:04:11.744Z,14.40
2022-08-22T16:06:52.422Z,15.18
2022-08-22T16:09:31.744Z,15.55
2022-08-22T16:11:40.455Z,15.40
2022-08-22T16:13:46.846Z,16.15
2022-08-22T16:16:09.483Z,15.32
2022-08-22T16:18:41.642Z,14.05
2022-08-22T16:20:59.167Z,16.70
2022-08-22T16:23:23.003Z,14.80
2022-08-22T16:25:48.944Z,14.07
2022-08-22T16:27:59.803Z,17.30
2022-08-22T16:30:16.144Z,18.20
2022-08-22T16:32:27.942Z,16.33
2022-08-22T16:34:44.082Z,14.30
2022-08-22T16:37:13.923Z,15.80
2022-08-22T16:39:23.945Z,15.27
2022-08-22T16:41:39.143Z,13.18
2022-08-22T16:43:55.166Z,13.60
2022-08-22T16:45:59.744Z,15.75
2022-08-22T16:48:25.044Z,13.45
2022-08-22T16:50:37.143Z,14.90
2022-08-22T16:53:18.983Z,14.65
2022-08-22T16:55:35.123Z,15.13
2022-08-22T16:58:06.132Z,15.05
2022-08-22T17:00:34.533Z,18.60
2022-08-22T17:02:51.923Z,14.35
2022-08-22T17:05:19.002Z,14.75
2022-08-22T17:07:49.642Z,16.73
2022-08-22T17:10:12.933Z,14.13
2022-08-22T17:12:25.943Z,15.85
2022-08-22T17:14:52.267Z,16.15
2022-08-22T17:17:13.345Z,14.40
2022-08-22T17:19:47.970Z,15.13
2022-08-22T17:22:05.964Z,15.57
2022-08-22T17:24:48.931Z,16.27
2022-08-22T17:27:01.544Z,15.85
2022-08-22T17:31:42.543Z,15.00
2022-08-22T17:34:21.264Z,13.90
2022-08-22T17:36:51.768Z,14.68
2022-08-22T17:39:16.063Z,16.60
2022-08-22T17:41:50.165Z,15.57
2022-08-22T17:44:08.103Z,12.98
2022-08-22T17:49:47.755Z,17.17
2022-08-22T17:52:27.821Z,15.13
2022-08-22T17:55:04.590Z,16.90
2022-08-22T17:57:52.122Z,14.05
2022-08-22T18:00:27.354Z,13.60
2022-08-22T18:03:01.984Z,14.45
2022-08-22T18:17:07.095Z,14.10
2022-08-22T18:38:00.384Z,13.27
2022-08-22T19:07:55.664Z,11.88
2022-08-22T19:10:51.197Z,10.80
2022-08-22T19:17:58.805Z,11.20
2022-08-22T19:31:45.245Z,12.00
2022-08-22T19:35:09.755Z,12.35
2022-08-22T19:38:06.725Z,12.20
2022-08-22T19:41:01.498Z,12.10
2022-08-22T19:43:54.348Z,12.63
2022-08-22T19:53:46.553Z,15.07
2022-08-22T19:56:25.239Z,14.32
2022-08-22T19:59:20.465Z,13.60
2022-08-22T20:05:44.158Z,12.38
2022-08-22T20:09:01.809Z,11.07
2022-08-22T20:12:15.766Z,11.73
2022-08-22T20:18:47.323Z,12.27
2022-08-22T20:21:55.726Z,11.25
2022-08-22T20:24:25.767Z,11.57
2022-08-22T20:32:38.940Z,11.27
2022-08-22T20:35:53.569Z,12.02
2022-08-22T20:38:20.640Z,9.93
2022-08-22T20:41:11.382Z,9.82
2022-08-22T20:43:56.586Z,10.55
2022-08-22T20:47:11.242Z,10.32
2022-08-22T20:50:09.553Z,10.63
2022-08-22T20:53:32.087Z,10.52
2022-08-22T20:56:27.107Z,11.02
2022-08-22T20:59:08.264Z,10.23
2022-08-22T21:01:27.873Z,10.27
2022-08-22T21:03:57.842Z,10.07
2022-08-22T21:06:44.354Z,9.13
2022-08-22T21:09:23.391Z,9.20
2022-08-22T21:11:40.394Z,9.13
2022-08-22T21:13:55.760Z,9.70
2022-08-22T21:16:39.960Z,9.02
2022-08-22T21:18:56.945Z,9.23
2022-08-22T21:25:14.690Z,8.30
2022-08-22T21:27:54.284Z,9.60
2022-08-22T21:30:08.876Z,8.05
2022-08-22T21:32:46.562Z,7.95
2022-08-22T21:35:01.534Z,9.57
2022-08-22T21:37:42.606Z,8.23
2022-08-22T21:40:45.393Z,9.30
2022-08-22T21:45:47.881Z,8.63
2022-08-22T21:47:58.806Z,9.10
2022-08-22T21:50:49.941Z,9.13
2022-08-22T21:53:27.050Z,8.82
2022-08-22T21:55:47.537Z,8.93
2022-08-22T21:58:35.562Z,9.60
2022-08-22T22:00:54.977Z,10.70
2022-08-22T22:03:04.899Z,10.52
2022-08-22T22:05:18.119Z,9.77
2022-08-22T22:07:26.117Z,10.43
2022-08-22T22:09:31.481Z,10.55
2022-08-22T22:11:36.985Z,9.85
2022-08-22T22:13:44.487Z,11.07
2022-08-22T22:15:52.703Z,9.23
2022-08-22T22:17:59.060Z,9.52
2022-08-22T22:20:13.957Z,9.70
2022-08-22T22:22:18.125Z,12.88
2022-08-22T22:24:23.884Z,10.55
2022-08-22T22:26:30.926Z,10.77
2022-08-22T22:28:42.663Z,10.05
2022-08-22T22:30:51.164Z,10.02
2022-08-22T22:32:56.303Z,9.25
2022-08-22T22:35:00.295Z,8.98
2022-08-22T22:37:06.784Z,10.88
2022-08-22T22:39:13.630Z,11.00
2022-08-22T22:41:18.356Z,11.35
2022-08-22T22:43:22.669Z,11.25
2022-08-22T22:45:30.685Z,10.65
2022-08-22T22:47:36.012Z,10.35
2022-08-22T22:49:39.973Z,9.32
2022-08-22T22:51:45.048Z,10.02
2022-08-22T22:53:49.883Z,10.18
2022-08-22T22:55:59.582Z,11.32
2022-08-22T22:58:05.932Z,10.20
2022-08-22T23:00:12.143Z,10.93
2022-08-22T23:02:22.080Z,10.75
2022-08-22T23:04:26.957Z,10.65
2022-08-22T23:06:33.383Z,11.77
2022-08-22T23:08:37.704Z,14.10
2022-08-22T23:10:41.907Z,10.82
2022-08-22T23:12:46.123Z,11.57
2022-08-22T23:14:49.993Z,11.57
2022-08-22T23:16:57.925Z,10.38
2022-08-22T23:19:02.221Z,11.07
2022-08-22T23:21:19.664Z,12.13
2022-08-22T23:23:24.583Z,10.82
2022-08-22T23:25:28.990Z,13.13
2022-08-22T23:27:32.987Z,11.50
2022-08-22T23:29:40.905Z,9.38
2022-08-22T23:31:53.310Z,9.30
2022-08-22T23:34:03.364Z,9.40
2022-08-22T23:36:14.944Z,10.93
2022-08-22T23:38:20.178Z,10.75
2022-08-22T23:40:25.884Z,11.40
2022-08-22T23:42:30.736Z,13.60
2022-08-22T23:44:36.924Z,12.80
2022-08-22T23:46:40.503Z,12.10
2022-08-22T23:48:44.945Z,11.80
2022-08-22T23:50:48.917Z,12.25
2022-08-22T23:52:51.982Z,13.88
2022-08-22T23:54:56.729Z,10.60
2022-08-22T23:57:03.723Z,11.45
2022-08-22T23:59:20.424Z,11.77
